createdAt,value
2018-09-18T00:00:11.100Z,15.90
2018-09-18T00:02:39.339Z,15.90
2018-09-18T00:05:07.611Z,15.90
2018-09-18T00:07:35.880Z,15.90
2018-09-18T00:10:04.291Z,15.80
2018-09-18T00:12:32.568Z,15.80
2018-09-18T00:15:00.865Z,15.90
2018-09-18T00:17:29.180Z,15.90
2018-09-18T00:19:57.454Z,15.80
2018-09-18T00:22:25.734Z,15.90
2018-09-18T00:24:53.988Z,15.80
2018-09-18T00:27:22.285Z,15.80
2018-09-18T00:29:50.625Z,15.80
2018-09-18T00:32:18.914Z,15.80
2018-09-18T00:34:47.244Z,15.80
2018-09-18T00:37:15.469Z,15.80
2018-09-18T00:39:43.740Z,15.80
2018-09-18T00:42:12.023Z,15.80
2018-09-18T00:44:40.308Z,15.80
2018-09-18T00:47:08.643Z,15.80
2018-09-18T00:49:36.908Z,15.80
2018-09-18T00:52:05.272Z,15.80
2018-09-18T00:54:33.580Z,15.80
2018-09-18T00:57:01.880Z,15.80
2018-09-18T00:59:30.171Z,15.80
2018-09-18T01:01:58.429Z,15.90
2018-09-18T01:04:26.792Z,15.80
2018-09-18T01:06:55.042Z,15.80
2018-09-18T01:09:23.264Z,15.80
2018-09-18T01:11:51.541Z,15.80
2018-09-18T01:14:19.788Z,15.80
2018-09-18T01:16:48.098Z,15.70
2018-09-18T01:19:16.446Z,15.80
2018-09-18T01:21:44.921Z,15.70
2018-09-18T01:24:13.314Z,15.70
2018-09-18T01:26:41.622Z,15.70
2018-09-18T01:29:09.893Z,15.70
2018-09-18T01:31:38.167Z,15.60
2018-09-18T01:34:06.494Z,15.60
2018-09-18T01:36:34.728Z,15.60
2018-09-18T01:39:03.015Z,15.60
2018-09-18T01:41:32.497Z,15.60
2018-09-18T01:44:00.721Z,15.50
2018-09-18T01:46:28.995Z,15.50
2018-09-18T01:48:57.276Z,15.50
2018-09-18T01:51:25.573Z,15.50
2018-09-18T01:53:53.831Z,15.50
2018-09-18T01:56:22.104Z,15.50
2018-09-18T01:58:50.425Z,15.50
2018-09-18T02:01:18.693Z,15.50
2018-09-18T02:03:47.064Z,15.50
2018-09-18T02:06:15.360Z,15.50
2018-09-18T02:08:43.621Z,15.50
2018-09-18T02:11:11.912Z,15.50
2018-09-18T02:13:40.173Z,15.50
2018-09-18T02:16:08.429Z,15.50
2018-09-18T02:18:36.680Z,15.40
2018-09-18T02:21:05.069Z,15.40
2018-09-18T02:23:33.384Z,15.50
2018-09-18T02:26:01.667Z,15.40
2018-09-18T02:28:29.908Z,15.50
2018-09-18T02:30:58.195Z,15.40
2018-09-18T02:33:27.452Z,15.40
2018-09-18T02:35:55.830Z,15.40
2018-09-18T02:38:24.256Z,15.40
2018-09-18T02:40:52.558Z,15.40
2018-09-18T02:43:20.869Z,15.40
2018-09-18T02:45:49.243Z,15.40
2018-09-18T02:48:17.536Z,15.30
2018-09-18T02:50:45.800Z,15.30
2018-09-18T02:53:14.092Z,15.30
2018-09-18T02:55:42.354Z,15.30
2018-09-18T02:58:10.651Z,15.30
2018-09-18T03:00:38.921Z,15.20
2018-09-18T03:03:07.236Z,15.20
2018-09-18T03:05:35.471Z,15.20
2018-09-18T03:08:03.760Z,15.20
2018-09-18T03:10:32.027Z,15.20
2018-09-18T03:13:00.334Z,15.20
2018-09-18T03:15:28.589Z,15.20
2018-09-18T03:17:56.871Z,15.20
2018-09-18T03:20:25.132Z,15.20
2018-09-18T03:22:54.021Z,15.10
2018-09-18T03:25:22.260Z,15.10
2018-09-18T03:27:50.481Z,15.10
2018-09-18T03:30:18.737Z,15.10
2018-09-18T03:32:47.016Z,15.10
2018-09-18T03:35:15.306Z,15.10
2018-09-18T03:37:43.524Z,15.20
2018-09-18T03:40:11.834Z,15.10
2018-09-18T03:42:40.083Z,15.10
2018-09-18T03:45:08.426Z,15.10
2018-09-18T03:47:36.729Z,15.00
2018-09-18T03:50:05.073Z,15.10
2018-09-18T03:52:33.344Z,15.10
2018-09-18T03:55:01.594Z,15.10
2018-09-18T03:57:29.880Z,15.10
2018-09-18T03:59:58.261Z,15.00
2018-09-18T04:02:26.594Z,15.00
2018-09-18T04:04:54.814Z,15.00
2018-09-18T04:07:23.088Z,15.00
2018-09-18T04:09:51.423Z,15.00
2018-09-18T04:12:19.715Z,15.00
2018-09-18T04:14:47.946Z,15.00
2018-09-18T04:17:16.306Z,15.00
2018-09-18T04:19:44.537Z,15.00
2018-09-18T04:22:12.956Z,15.00
2018-09-18T04:24:41.289Z,15.00
2018-09-18T04:27:09.788Z,14.90
2018-09-18T04:29:38.486Z,14.90
2018-09-18T04:32:06.758Z,14.90
2018-09-18T04:34:35.017Z,14.80
2018-09-18T04:37:03.285Z,14.80
2018-09-18T04:39:31.500Z,14.70
2018-09-18T04:41:59.767Z,14.70
2018-09-18T04:44:28.059Z,14.70
2018-09-18T04:46:56.301Z,14.70
2018-09-18T04:49:24.848Z,14.60
2018-09-18T04:51:53.086Z,14.60
2018-09-18T04:54:21.457Z,14.60
2018-09-18T04:56:49.738Z,14.60
2018-09-18T04:59:18.092Z,14.50
2018-09-18T05:01:46.473Z,14.50
2018-09-18T05:04:14.885Z,14.50
2018-09-18T05:06:43.163Z,14.50
2018-09-18T05:09:11.857Z,14.50
2018-09-18T05:11:40.240Z,14.50
2018-09-18T05:14:08.683Z,14.50
2018-09-18T05:16:36.888Z,14.50
2018-09-18T05:19:05.208Z,14.50
2018-09-18T05:21:33.501Z,14.50
2018-09-18T05:24:01.777Z,14.50
2018-09-18T05:26:30.048Z,14.50
2018-09-18T05:28:58.245Z,14.50
2018-09-18T05:31:26.558Z,14.40
2018-09-18T05:33:54.846Z,14.50
2018-09-18T05:36:23.215Z,14.50
2018-09-18T05:38:51.586Z,14.50
2018-09-18T05:41:19.900Z,14.50
2018-09-18T05:43:48.169Z,14.50
2018-09-18T05:46:16.790Z,14.60
2018-09-18T05:48:45.074Z,14.60
2018-09-18T05:51:13.479Z,14.70
2018-09-18T05:53:41.736Z,14.70
2018-09-18T05:56:10.045Z,14.80
2018-09-18T05:58:38.317Z,14.80
2018-09-18T06:01:06.559Z,14.80
2018-09-18T06:03:34.773Z,14.90
2018-09-18T06:06:03.044Z,14.90
2018-09-18T06:08:31.359Z,15.00
2018-09-18T06:10:59.601Z,15.10
2018-09-18T06:13:27.895Z,15.10
2018-09-18T06:15:56.742Z,15.20
2018-09-18T06:18:25.041Z,15.30
2018-09-18T06:20:53.346Z,15.30
2018-09-18T06:23:21.613Z,15.40
2018-09-18T06:25:50.201Z,15.50
2018-09-18T06:28:18.456Z,15.60
2018-09-18T06:30:46.726Z,15.60
2018-09-18T06:33:15.223Z,15.70
2018-09-18T06:35:43.543Z,15.80
2018-09-18T06:38:11.805Z,15.90
2018-09-18T06:40:40.058Z,15.90
2018-09-18T06:43:08.370Z,16.00
2018-09-18T06:45:36.674Z,16.10
2018-09-18T06:48:05.081Z,16.20
2018-09-18T06:50:33.302Z,16.30
2018-09-18T06:53:01.732Z,16.40
2018-09-18T06:55:29.981Z,16.50
2018-09-18T06:57:58.240Z,16.60
2018-09-18T07:00:26.458Z,16.70
2018-09-18T07:02:54.709Z,16.80
2018-09-18T07:05:22.990Z,16.80
2018-09-18T07:07:51.211Z,16.90
2018-09-18T07:10:19.551Z,17.00
2018-09-18T07:12:47.822Z,17.10
2018-09-18T07:15:16.083Z,17.20
2018-09-18T07:17:44.328Z,17.30
2018-09-18T07:20:12.630Z,17.40
2018-09-18T07:22:40.872Z,17.60
2018-09-18T07:25:09.183Z,17.70
2018-09-18T07:27:37.430Z,17.80
2018-09-18T07:30:05.844Z,17.90
2018-09-18T07:32:34.063Z,18.10
2018-09-18T07:35:02.341Z,18.20
2018-09-18T07:37:30.559Z,18.20
2018-09-18T07:39:58.849Z,18.30
2018-09-18T07:42:27.060Z,18.40
2018-09-18T07:44:55.320Z,18.60
2018-09-18T07:47:23.568Z,18.70
2018-09-18T07:49:51.784Z,18.90
2018-09-18T07:52:20.210Z,19.00
2018-09-18T07:54:48.468Z,19.20
2018-09-18T07:57:16.758Z,19.30
2018-09-18T07:59:45.032Z,19.50
2018-09-18T08:02:13.366Z,19.60
2018-09-18T08:04:42.019Z,19.80
2018-09-18T08:07:10.370Z,19.90
2018-09-18T08:09:38.683Z,20.10
2018-09-18T08:12:07.299Z,20.30
2018-09-18T08:14:35.554Z,20.50
2018-09-18T08:17:03.766Z,20.70
2018-09-18T08:19:32.146Z,20.80
2018-09-18T08:22:00.340Z,21.00
2018-09-18T08:24:28.589Z,21.20
2018-09-18T08:26:56.874Z,21.30
2018-09-18T08:29:25.152Z,21.40
2018-09-18T08:31:53.436Z,21.70
2018-09-18T08:34:21.727Z,21.90
2018-09-18T08:36:50.010Z,22.00
2018-09-18T08:39:18.277Z,22.20
2018-09-18T08:41:46.598Z,22.20
2018-09-18T08:44:14.995Z,22.40
2018-09-18T08:46:43.319Z,22.50
2018-09-18T08:49:11.559Z,22.70
2018-09-18T08:51:39.876Z,22.90
2018-09-18T08:54:08.134Z,22.90
2018-09-18T08:56:36.605Z,23.10
2018-09-18T08:59:04.889Z,23.20
2018-09-18T09:01:33.115Z,23.30
2018-09-18T09:04:01.453Z,23.50
2018-09-18T09:06:29.826Z,23.60
2018-09-18T09:08:58.101Z,23.80
2018-09-18T09:11:26.310Z,24.00
2018-09-18T09:13:54.639Z,24.10
2018-09-18T09:16:23.801Z,24.20
2018-09-18T09:18:53.137Z,24.40
2018-09-18T09:21:21.526Z,24.50
2018-09-18T09:23:49.777Z,24.60
2018-09-18T09:26:18.137Z,24.60
2018-09-18T09:28:46.335Z,24.80
2018-09-18T09:31:14.593Z,24.90
2018-09-18T09:33:42.829Z,25.00
2018-09-18T09:36:11.080Z,25.10
2018-09-18T09:38:39.417Z,25.20
2018-09-18T09:41:07.618Z,25.40
2018-09-18T09:43:35.988Z,25.60
2018-09-18T09:46:04.274Z,25.60
2018-09-18T09:48:34.786Z,25.70
2018-09-18T09:51:03.992Z,25.90
2018-09-18T09:53:32.721Z,26.00
2018-09-18T09:56:01.119Z,26.10
2018-09-18T09:58:29.555Z,26.30
2018-09-18T10:01:03.259Z,26.40
2018-09-18T10:03:31.537Z,26.50
2018-09-18T10:06:06.663Z,26.50
2018-09-18T10:08:34.945Z,26.80
2018-09-18T10:11:03.448Z,26.80
2018-09-18T10:13:31.702Z,26.80
2018-09-18T10:16:00.017Z,26.70
2018-09-18T10:18:28.385Z,26.80
2018-09-18T10:20:56.716Z,26.90
2018-09-18T10:23:24.995Z,27.10
2018-09-18T10:25:53.270Z,27.20
2018-09-18T10:28:21.461Z,27.30
2018-09-18T10:30:49.812Z,27.20
2018-09-18T10:33:18.067Z,27.20
2018-09-18T10:35:46.299Z,27.40
2018-09-18T10:38:14.587Z,27.40
2018-09-18T10:40:42.902Z,27.40
2018-09-18T10:43:11.231Z,27.40
2018-09-18T10:45:39.596Z,27.50
2018-09-18T10:48:08.016Z,27.60
2018-09-18T10:50:36.402Z,27.60
2018-09-18T10:53:04.866Z,27.70
2018-09-18T10:55:33.156Z,27.70
2018-09-18T10:58:01.432Z,27.80
2018-09-18T11:00:29.723Z,27.80
2018-09-18T11:02:58.092Z,27.90
2018-09-18T11:05:26.509Z,28.00
2018-09-18T11:07:54.834Z,28.10
2018-09-18T11:10:23.143Z,28.10
2018-09-18T11:12:51.450Z,28.10
2018-09-18T11:15:19.767Z,28.00
2018-09-18T11:17:48.064Z,28.00
2018-09-18T11:20:16.465Z,28.10
2018-09-18T11:22:44.846Z,28.10
2018-09-18T11:25:13.275Z,28.20
2018-09-18T11:27:41.580Z,28.20
2018-09-18T11:30:10.054Z,28.40
2018-09-18T11:32:38.378Z,28.30
2018-09-18T11:35:06.707Z,28.40
2018-09-18T11:37:35.024Z,28.50
2018-09-18T11:40:03.437Z,28.40
2018-09-18T11:42:31.936Z,28.40
2018-09-18T11:45:00.413Z,28.60
2018-09-18T11:47:28.740Z,28.60
2018-09-18T11:49:57.007Z,28.60
2018-09-18T11:52:25.316Z,28.60
2018-09-18T11:54:53.603Z,28.70
2018-09-18T11:57:21.898Z,28.70
2018-09-18T11:59:50.277Z,28.80
2018-09-18T12:02:19.052Z,28.80
2018-09-18T12:04:47.385Z,28.80
2018-09-18T12:07:15.731Z,28.80
2018-09-18T12:09:44.189Z,28.80
2018-09-18T12:12:12.830Z,28.80
2018-09-18T12:14:41.148Z,29.00
2018-09-18T12:17:09.758Z,29.00
2018-09-18T12:19:38.048Z,29.10
2018-09-18T12:22:06.389Z,29.10
2018-09-18T12:24:34.603Z,29.10
2018-09-18T12:27:02.962Z,29.00
2018-09-18T12:29:31.450Z,29.10
2018-09-18T12:31:59.666Z,29.00
2018-09-18T12:34:27.937Z,29.10
2018-09-18T12:36:56.251Z,29.10
2018-09-18T12:39:24.565Z,29.20
2018-09-18T12:41:52.850Z,29.30
2018-09-18T12:44:21.100Z,29.40
2018-09-18T12:46:49.373Z,29.50
2018-09-18T12:49:17.721Z,29.60
2018-09-18T12:51:45.982Z,29.40
2018-09-18T12:54:14.452Z,29.40
2018-09-18T12:56:43.432Z,29.40
2018-09-18T12:59:11.651Z,29.40
2018-09-18T13:01:39.901Z,29.40
2018-09-18T13:04:08.188Z,29.50
2018-09-18T13:06:36.528Z,29.50
2018-09-18T13:09:07.444Z,29.40
2018-09-18T13:11:35.689Z,29.30
2018-09-18T13:14:04.139Z,29.50
2018-09-18T13:16:32.422Z,29.60
2018-09-18T13:19:00.739Z,29.80
2018-09-18T13:21:30.352Z,29.80
2018-09-18T13:23:58.845Z,29.70
2018-09-18T13:26:27.232Z,29.80
2018-09-18T13:28:55.658Z,29.90
2018-09-18T13:31:25.409Z,29.90
2018-09-18T13:33:53.690Z,29.80
2018-09-18T13:36:22.103Z,29.80
2018-09-18T13:38:50.383Z,29.90
2018-09-18T13:41:18.799Z,29.90
2018-09-18T13:43:47.147Z,29.80
2018-09-18T13:46:15.453Z,29.90
2018-09-18T13:48:43.780Z,29.90
2018-09-18T13:51:12.532Z,29.90
2018-09-18T13:53:41.016Z,30.00
2018-09-18T13:56:09.422Z,30.00
2018-09-18T13:58:37.894Z,30.10
2018-09-18T14:01:06.211Z,30.10
2018-09-18T14:03:34.504Z,30.20
2018-09-18T14:06:02.815Z,30.20
2018-09-18T14:08:31.574Z,30.30
2018-09-18T14:10:59.892Z,30.30
2018-09-18T14:13:28.291Z,30.40
2018-09-18T14:15:56.697Z,30.40
2018-09-18T14:18:25.036Z,30.50
2018-09-18T14:20:53.350Z,30.40
2018-09-18T14:23:21.668Z,30.30
2018-09-18T14:25:49.926Z,30.30
2018-09-18T14:28:18.252Z,30.30
2018-09-18T14:30:46.584Z,30.30
2018-09-18T14:33:14.993Z,30.40
2018-09-18T14:35:43.292Z,30.40
2018-09-18T14:38:12.749Z,30.30
2018-09-18T14:40:41.703Z,30.30
2018-09-18T14:43:10.061Z,30.20
2018-09-18T14:45:38.452Z,30.20
2018-09-18T14:48:06.782Z,30.20
2018-09-18T14:50:35.120Z,30.30
2018-09-18T14:53:03.641Z,30.40
2018-09-18T14:55:32.053Z,30.50
2018-09-18T14:58:00.647Z,30.40
2018-09-18T15:00:29.000Z,30.10
2018-09-18T15:02:57.388Z,30.00
2018-09-18T15:05:25.655Z,30.20
2018-09-18T15:07:53.944Z,30.20
2018-09-18T15:10:22.265Z,30.20
2018-09-18T15:12:50.602Z,30.10
2018-09-18T15:15:19.048Z,30.00
2018-09-18T15:17:47.427Z,29.90
2018-09-18T15:20:15.999Z,29.70
2018-09-18T15:22:44.271Z,29.80
2018-09-18T15:25:12.579Z,29.80
2018-09-18T15:27:40.952Z,29.70
2018-09-18T15:30:09.172Z,29.80
2018-09-18T15:32:37.481Z,29.80
2018-09-18T15:35:05.858Z,29.70
2018-09-18T15:37:34.281Z,29.70
2018-09-18T15:40:02.648Z,29.70
2018-09-18T15:42:31.078Z,29.60
2018-09-18T15:44:59.437Z,29.60
2018-09-18T15:47:27.794Z,29.50
2018-09-18T15:49:56.205Z,29.60
2018-09-18T15:52:24.696Z,29.40
2018-09-18T15:54:53.057Z,29.60
2018-09-18T15:57:21.964Z,29.70
2018-09-18T15:59:50.326Z,29.60
2018-09-18T16:02:18.650Z,29.50
2018-09-18T16:04:46.921Z,29.60
2018-09-18T16:07:31.922Z,29.60
2018-09-18T16:10:00.263Z,29.20
2018-09-18T16:12:28.553Z,29.20
2018-09-18T16:14:56.881Z,29.30
2018-09-18T16:17:25.192Z,29.30
2018-09-18T16:19:53.466Z,29.20
2018-09-18T16:22:24.095Z,29.20
2018-09-18T16:24:52.549Z,29.10
2018-09-18T16:27:20.834Z,29.10
2018-09-18T16:29:49.076Z,29.00
2018-09-18T16:32:17.407Z,28.80
2018-09-18T16:34:45.795Z,28.80
2018-09-18T16:37:14.148Z,28.80
2018-09-18T16:39:42.522Z,28.70
2018-09-18T16:42:10.934Z,28.70
2018-09-18T16:44:39.783Z,28.60
2018-09-18T16:47:08.230Z,28.50
2018-09-18T16:49:36.830Z,28.40
2018-09-18T16:52:05.368Z,28.30
2018-09-18T16:54:33.984Z,28.20
2018-09-18T16:57:02.159Z,28.20
2018-09-18T16:59:30.541Z,28.20
2018-09-18T17:01:58.976Z,28.10
2018-09-18T17:04:27.966Z,28.00
2018-09-18T17:06:56.307Z,27.90
2018-09-18T17:09:24.743Z,27.80
2018-09-18T17:11:53.147Z,27.70
2018-09-18T17:14:21.511Z,27.60
2018-09-18T17:16:49.870Z,27.40
2018-09-18T17:19:18.150Z,27.40
2018-09-18T17:21:46.630Z,27.30
2018-09-18T17:24:15.168Z,27.20
2018-09-18T17:26:44.395Z,27.20
2018-09-18T17:29:14.363Z,27.00
2018-09-18T17:31:43.083Z,26.90
2018-09-18T17:34:11.505Z,26.80
2018-09-18T17:36:41.385Z,26.60
2018-09-18T17:39:10.827Z,26.50
2018-09-18T17:41:40.475Z,26.50
2018-09-18T17:44:09.309Z,26.40
2018-09-18T17:46:37.688Z,26.30
2018-09-18T17:49:06.405Z,26.20
2018-09-18T17:51:35.527Z,26.10
2018-09-18T17:54:03.908Z,26.10
2018-09-18T17:56:32.293Z,26.00
2018-09-18T17:59:00.831Z,26.00
2018-09-18T18:01:29.126Z,26.00
2018-09-18T18:03:57.866Z,25.90
2018-09-18T18:06:26.241Z,25.80
2018-09-18T18:08:54.745Z,25.70
2018-09-18T18:11:23.233Z,25.60
2018-09-18T18:13:51.742Z,25.50
2018-09-18T18:16:20.630Z,25.50
2018-09-18T18:18:48.908Z,25.40
2018-09-18T18:21:17.958Z,25.30
2018-09-18T18:23:47.490Z,25.20
2018-09-18T18:26:16.363Z,25.20
2018-09-18T18:28:44.710Z,25.20
2018-09-18T18:31:13.161Z,25.10
2018-09-18T18:33:41.618Z,25.00
2018-09-18T18:36:10.692Z,24.90
2018-09-18T18:38:39.105Z,24.90
2018-09-18T18:41:07.748Z,24.80
2018-09-18T18:43:36.107Z,24.70
2018-09-18T18:46:04.379Z,24.60
2018-09-18T18:48:33.275Z,24.50
2018-09-18T18:51:01.508Z,24.50
2018-09-18T18:53:30.390Z,24.40
2018-09-18T18:55:58.762Z,24.30
2018-09-18T18:58:27.385Z,24.20
2018-09-18T19:00:56.412Z,24.20
2018-09-18T19:03:24.906Z,24.10
2018-09-18T19:05:54.371Z,24.10
2018-09-18T19:08:23.486Z,24.00
2018-09-18T19:10:51.950Z,23.90
2018-09-18T19:13:20.621Z,23.90
2018-09-18T19:15:49.036Z,23.80
2018-09-18T19:18:17.412Z,23.70
2018-09-18T19:20:45.882Z,23.60
2018-09-18T19:23:14.301Z,23.60
2018-09-18T19:25:42.760Z,23.50
2018-09-18T19:28:11.052Z,23.50
2018-09-18T19:30:39.487Z,23.40
2018-09-18T19:33:08.153Z,23.40
2018-09-18T19:35:36.678Z,23.30
2018-09-18T19:38:05.080Z,23.30
2018-09-18T19:40:33.500Z,23.20
2018-09-18T19:43:01.946Z,23.20
2018-09-18T19:45:30.373Z,23.10
2018-09-18T19:47:58.770Z,23.10
2018-09-18T19:50:27.202Z,23.00
2018-09-18T19:52:55.791Z,23.00
2018-09-18T19:55:34.008Z,22.90
2018-09-18T19:58:02.343Z,22.90
2018-09-18T20:00:30.801Z,22.80
2018-09-18T20:02:59.206Z,22.70
2018-09-18T20:05:27.506Z,22.70
2018-09-18T20:07:55.810Z,22.70
2018-09-18T20:10:24.119Z,22.60
2018-09-18T20:12:52.494Z,22.60
2018-09-18T20:15:20.919Z,22.60
2018-09-18T20:17:50.606Z,22.50
2018-09-18T20:20:18.954Z,22.50
2018-09-18T20:22:47.895Z,22.40
2018-09-18T20:25:16.416Z,22.40
2018-09-18T20:27:44.794Z,22.30
2018-09-18T20:30:13.612Z,22.30
2018-09-18T20:32:42.148Z,22.20
2018-09-18T20:35:10.444Z,22.20
2018-09-18T20:37:38.729Z,22.10
2018-09-18T20:40:07.026Z,22.10
2018-09-18T20:42:35.355Z,22.00
2018-09-18T20:45:04.715Z,22.00
2018-09-18T20:47:33.240Z,21.90
2018-09-18T20:50:01.605Z,21.90
2018-09-18T20:52:29.934Z,21.80
2018-09-18T20:54:58.275Z,21.70
2018-09-18T20:57:26.661Z,21.70
2018-09-18T20:59:55.115Z,21.70
2018-09-18T21:02:24.460Z,21.60
2018-09-18T21:04:53.196Z,21.60
2018-09-18T21:07:21.538Z,21.50
2018-09-18T21:09:50.107Z,21.40
2018-09-18T21:12:18.578Z,21.30
2018-09-18T21:14:47.147Z,21.30
2018-09-18T21:17:15.534Z,21.30
2018-09-18T21:19:44.054Z,21.20
2018-09-18T21:22:12.979Z,21.20
2018-09-18T21:24:41.294Z,21.20
2018-09-18T21:27:09.672Z,21.20
2018-09-18T21:29:38.115Z,21.10
2018-09-18T21:32:06.464Z,21.00
2018-09-18T21:34:34.921Z,21.00
2018-09-18T21:37:03.244Z,21.00
2018-09-18T21:39:31.601Z,21.00
2018-09-18T21:41:59.908Z,21.00
2018-09-18T21:44:28.281Z,20.90
2018-09-18T21:46:56.750Z,20.90
2018-09-18T21:49:25.144Z,20.80
2018-09-18T21:51:53.698Z,20.80
2018-09-18T21:54:22.554Z,20.70
2018-09-18T21:56:50.967Z,20.70
2018-09-18T21:59:19.271Z,20.60
2018-09-18T22:01:47.546Z,20.60
2018-09-18T22:04:15.789Z,20.50
2018-09-18T22:06:44.166Z,20.50
2018-09-18T22:09:13.652Z,20.50
2018-09-18T22:11:41.926Z,20.40
2018-09-18T22:14:12.820Z,20.40
2018-09-18T22:16:41.665Z,20.30
2018-09-18T22:19:10.057Z,20.30
2018-09-18T22:21:38.542Z,20.30
2018-09-18T22:24:07.103Z,20.30
2018-09-18T22:26:35.448Z,20.20
2018-09-18T22:29:07.980Z,20.20
2018-09-18T22:31:40.997Z,20.10
2018-09-18T22:34:10.412Z,20.10
2018-09-18T22:36:38.795Z,20.00
2018-09-18T22:39:07.992Z,19.90
2018-09-18T22:41:38.275Z,19.90
2018-09-18T22:44:07.658Z,19.80
2018-09-18T22:46:36.341Z,19.80
2018-09-18T22:49:04.748Z,19.70
2018-09-18T22:51:33.117Z,19.60
2018-09-18T22:54:01.543Z,19.60
2018-09-18T22:56:29.929Z,19.60
2018-09-18T22:58:58.488Z,19.50
2018-09-18T23:01:26.841Z,19.50
2018-09-18T23:03:55.252Z,19.40
2018-09-18T23:06:24.329Z,19.50
2018-09-18T23:08:52.793Z,19.40
2018-09-18T23:11:21.248Z,19.40
2018-09-18T23:13:49.743Z,19.40
2018-09-18T23:16:18.042Z,19.30
2018-09-18T23:18:46.505Z,19.30
2018-09-18T23:21:14.978Z,19.30
2018-09-18T23:23:43.324Z,19.20
2018-09-18T23:26:11.767Z,19.20
2018-09-18T23:28:40.803Z,19.20
2018-09-18T23:31:09.174Z,19.20
2018-09-18T23:33:37.496Z,19.20
2018-09-18T23:36:05.748Z,19.20
2018-09-18T23:38:34.082Z,19.10
2018-09-18T23:41:02.462Z,19.10
2018-09-18T23:43:30.831Z,19.00
2018-09-18T23:45:59.263Z,19.00
2018-09-18T23:48:27.649Z,18.90
2018-09-18T23:50:56.139Z,18.90
2018-09-18T23:53:24.430Z,18.90
2018-09-18T23:55:52.787Z,18.80
2018-09-18T23:58:21.345Z,18.80
